Time;durP1;ratioP1;P1;durP2;ratioP2;P2;SDS_P1;SDS_P2;PMS_P1;PMS_P2;Temp;Humidity;BMP_temperature;BMP_pressure;BME280_temperature;BME280_humidity;BME280_pressure;Samples;Min_cycle;Max_cycle;Signal;HPM_P1;HPM_P2
2021/03/04 00:00:40;;;;;;;;;;;;;;;;;;4991054;28;20306;-73
2021/03/04 00:03:06;;;;;;;;;;;;;;;;;;5002885;28;19955;-73
2021/03/04 00:05:32;;;;;;;;;;;;;;;;;;4980975;28;19926;-73
2021/03/04 00:07:58;;;;;;;;;;;;;;;;;;4982082;28;20771;-74
2021/03/04 00:10:24;;;;;;;;;;;;;;;;;;4984249;28;20436;-74
2021/03/04 00:12:50;;;;;;;;;;;;;;;;;;4994018;28;19929;-73
2021/03/04 00:15:16;;;;;;;;;;;;;;;;;;5047774;28;19973;-73
2021/03/04 00:17:42;;;;;;;;;;;;;;;;;;4995768;28;19925;-73
2021/03/04 00:20:08;;;;;;;;;;;;;;;;;;4995260;28;20335;-73
2021/03/04 00:22:34;;;;;;;;;;;;;;;;;;5001829;28;19925;-73
2021/03/04 00:25:00;;;;;;;;;;;;;;;;;;5001529;28;19925;-74
2021/03/04 00:27:26;;;;;;;;;;;;;;;;;;4997606;28;19925;-74
2021/03/04 00:29:52;;;;;;;;;;;;;;;;;;4990011;28;19983;-74
2021/03/04 00:32:18;;;;;;;;;;;;;;;;;;4989707;28;19925;-73
2021/03/04 00:34:44;;;;;;;;;;;;;;;;;;4993739;28;19940;-73
2021/03/04 00:37:10;;;;;;;;;;;;;;;;;;5005191;28;19926;-73
2021/03/04 00:39:36;;;;;;;;;;;;;;;;;;5005039;28;19951;-73
2021/03/04 00:42:02;;;;;;;;;;;;;;;;;;4998914;28;19952;-73
2021/03/04 00:44:27;;;;;;;;;;;;;;;;;;5006167;28;19929;-73
2021/03/04 00:46:53;;;;;;;;;;;;;;;;;;4984160;28;19933;-73
2021/03/04 00:49:19;;;;;;;;;;;;;;;;;;4987020;28;19926;-73
2021/03/04 00:51:45;;;;;;;;;;;;;;;;;;4986577;28;19929;-73
2021/03/04 00:54:11;;;;;;;;;;;;;;;;;;5006396;28;20305;-73
2021/03/04 00:56:37;;;;;;;;;;;;;;;;;;5001582;28;20390;-73
2021/03/04 00:59:03;;;;;;;;;;;;;;;;;;4999595;28;19952;-74
2021/03/04 01:01:29;;;;;;;;;;;;;;;;;;5004077;28;20427;-73
2021/03/04 01:03:55;;;;;;;;;;;;;;;;;;4978426;28;19952;-73
2021/03/04 01:06:21;;;;;;;;;;;;;;;;;;4983043;28;19929;-73
2021/03/04 01:08:47;;;;;;;;;;;;;;;;;;4983436;28;19933;-73
2021/03/04 01:11:13;;;;;;;;;;;;;;;;;;4990226;28;19925;-73
2021/03/04 01:13:39;;;;;;;;;;;;;;;;;;4996679;28;20370;-73
2021/03/04 01:16:05;;;;;;;;;;;;;;;;;;5002714;28;19933;-73
2021/03/04 01:18:31;;;;;;;;;;;;;;;;;;4988541;28;19925;-73
2021/03/04 01:20:57;;;;;;;;;;;;;;;;;;4982414;28;20401;-73
2021/03/04 01:23:23;;;;;;;;;;;;;;;;;;4993308;28;20760;-73
2021/03/04 01:25:49;;;;;;;;;;;;;;;;;;5005968;28;19932;-73
2021/03/04 01:28:15;;;;;;;;;;;;;;;;;;4997163;28;20398;-74
2021/03/04 01:30:41;;;;;;;;;;;;;;;;;;5005981;28;19930;-73
2021/03/04 01:33:07;;;;;;;;;;;;;;;;;;4992378;28;19930;-73
2021/03/04 01:35:32;;;;;;;;;;;;;;;;;;5005531;28;19933;-73
2021/03/04 01:37:58;;;;;;;;;;;;;;;;;;5011186;28;19932;-73
2021/03/04 01:40:24;;;;;;;;;;;;;;;;;;5023920;28;19952;-74
2021/03/04 01:42:50;;;;;;;;;;;;;;;;;;5025127;28;19944;-74
2021/03/04 01:45:16;;;;;;;;;;;;;;;;;;5004218;28;19925;-73
2021/03/04 01:47:42;;;;;;;;;;;;;;;;;;5024784;28;19976;-73
2021/03/04 01:50:08;;;;;;;;;;;;;;;;;;5002131;28;20328;-73
2021/03/04 01:52:34;;;;;;;;;;;;;;;;;;4998374;28;19925;-74
2021/03/04 01:55:00;;;;;;;;;;;;;;;;;;5003561;28;19926;-73
2021/03/04 01:57:26;;;;;;;;;;;;;;;;;;5004410;28;19925;-73
2021/03/04 01:59:52;;;;;;;;;;;;;;;;;;4996216;28;19936;-73
2021/03/04 02:02:18;;;;;;;;;;;;;;;;;;4999651;28;19932;-73
2021/03/04 02:04:44;;;;;;;;;;;;;;;;;;4998416;28;19925;-73
2021/03/04 02:07:10;;;;;;;;;;;;;;;;;;5005837;28;19987;-73
2021/03/04 02:09:36;;;;;;;;;;;;;;;;;;4994338;28;19926;-73
2021/03/04 02:12:02;;;;;;;;;;;;;;;;;;5005918;28;19926;-73
2021/03/04 02:14:28;;;;;;;;;;;;;;;;;;5002757;28;19929;-73
2021/03/04 02:16:54;;;;;;;;;;;;;;;;;;4995157;28;19926;-74
2021/03/04 02:19:20;;;;;;;;;;;;;;;;;;4984085;28;19929;-73
2021/03/04 02:21:46;;;;;;;;;;;;;;;;;;5004704;28;19925;-73
2021/03/04 02:24:12;;;;;;;;;;;;;;;;;;4999206;28;19933;-73
2021/03/04 02:26:38;;;;;;;;;;;;;;;;;;5005953;28;19925;-74
2021/03/04 02:29:04;;;;;;;;;;;;;;;;;;5008728;28;20270;-73
2021/03/04 02:31:30;;;;;;;;;;;;;;;;;;5000731;28;19933;-73
2021/03/04 02:33:56;;;;;;;;;;;;;;;;;;4997721;28;19954;-73
2021/03/04 02:36:21;;;;;;;;;;;;;;;;;;5012076;28;19926;-73
2021/03/04 02:38:47;;;;;;;;;;;;;;;;;;4999854;28;19933;-73
2021/03/04 02:41:13;;;;;;;;;;;;;;;;;;4985825;28;19925;-73
2021/03/04 02:43:39;;;;;;;;;;;;;;;;;;4983759;28;20426;-73
2021/03/04 02:46:05;;;;;;;;;;;;;;;;;;4986358;28;19979;-73
2021/03/04 02:48:33;;;;;;;;;;;;;;;;;;4986525;28;19963;-73
2021/03/04 02:50:59;;;;;;;;;;;;;;;;;;5006194;28;19926;-73
2021/03/04 02:53:25;;;;;;;;;;;;;;;;;;4998712;28;19933;-74
2021/03/04 02:55:51;;;;;;;;;;;;;;;;;;4985585;28;19941;-73
2021/03/04 02:58:17;;;;;;;;;;;;;;;;;;4984582;28;19929;-74
2021/03/04 03:00:42;;;;;;;;;;;;;;;;;;4984535;28;19929;-73
2021/03/04 03:03:08;;;;;;;;;;;;;;;;;;4993976;28;19926;-73
2021/03/04 03:05:34;;;;;;;;;;;;;;;;;;4984046;28;19987;-74
2021/03/04 03:08:00;;;;;;;;;;;;;;;;;;4985647;28;19930;-73
2021/03/04 03:10:26;;;;;;;;;;;;;;;;;;4979031;28;19926;-73
2021/03/04 03:12:52;;;;;;;;;;;;;;;;;;4982223;28;19925;-73
2021/03/04 03:15:18;;;;;;;;;;;;;;;;;;4984973;28;19925;-73
2021/03/04 03:17:44;;;;;;;;;;;;;;;;;;4987289;28;19926;-73
2021/03/04 03:20:10;;;;;;;;;;;;;;;;;;4991712;28;20010;-73
2021/03/04 03:22:36;;;;;;;;;;;;;;;;;;4984046;28;20275;-73
2021/03/04 03:25:01;;;;;;;;;;;;;;;;;;4994837;28;19986;-73
2021/03/04 03:27:27;;;;;;;;;;;;;;;;;;5004046;28;19933;-73
2021/03/04 03:29:54;;;;;;;;;;;;;;;;;;5000690;28;19983;-73
2021/03/04 03:32:19;;;;;;;;;;;;;;;;;;5004079;28;19933;-73
2021/03/04 03:34:45;;;;;;;;;;;;;;;;;;4988669;28;19929;-73
2021/03/04 03:37:11;;;;;;;;;;;;;;;;;;5000490;28;19980;-73
2021/03/04 03:39:37;;;;;;;;;;;;;;;;;;5001470;28;19925;-73
2021/03/04 03:42:03;;;;;;;;;;;;;;;;;;4994748;28;19926;-73
2021/03/04 03:44:29;;;;;;;;;;;;;;;;;;5004304;28;19925;-73
2021/03/04 03:46:55;;;;;;;;;;;;;;;;;;4994515;28;19933;-74
2021/03/04 03:49:21;;;;;;;;;;;;;;;;;;4990094;28;19926;-74
2021/03/04 03:51:47;;;;;;;;;;;;;;;;;;4991556;28;19925;-74
2021/03/04 03:54:13;;;;;;;;;;;;;;;;;;5003634;28;19929;-74
2021/03/04 03:56:39;;;;;;;;;;;;;;;;;;4989324;28;19939;-74
2021/03/04 03:59:05;;;;;;;;;;;;;;;;;;4984358;28;19934;-74
2021/03/04 04:01:31;;;;;;;;;;;;;;;;;;4987960;28;20362;-75
2021/03/04 04:03:56;;;;;;;;;;;;;;;;;;4978466;28;19949;-75
2021/03/04 04:06:22;;;;;;;;;;;;;;;;;;4994189;28;19926;-75
2021/03/04 04:08:48;;;;;;;;;;;;;;;;;;5001388;28;20297;-73
2021/03/04 04:11:14;;;;;;;;;;;;;;;;;;4996798;28;20378;-74
2021/03/04 04:13:40;;;;;;;;;;;;;;;;;;4986880;28;19926;-73
2021/03/04 04:16:06;;;;;;;;;;;;;;;;;;4985960;28;19925;-73
2021/03/04 04:18:32;;;;;;;;;;;;;;;;;;4987400;28;19975;-73
2021/03/04 04:20:58;;;;;;;;;;;;;;;;;;4979872;28;19933;-73
2021/03/04 04:23:24;;;;;;;;;;;;;;;;;;5007189;28;19925;-74
2021/03/04 04:25:50;;;;;;;;;;;;;;;;;;4997378;28;19925;-74
2021/03/04 04:28:17;;;;;;;;;;;;;;;;;;5006560;28;19926;-74
2021/03/04 04:30:43;;;;;;;;;;;;;;;;;;5005458;28;19925;-74
2021/03/04 04:33:09;;;;;;;;;;;;;;;;;;5005597;28;20275;-74
2021/03/04 04:35:35;;;;;;;;;;;;;;;;;;5004957;28;20370;-74
2021/03/04 04:38:00;;;;;;;;;;;;;;;;;;4983588;28;19937;-74
2021/03/04 04:40:26;;;;;;;;;;;;;;;;;;5006954;28;19925;-74
2021/03/04 04:42:52;;;;;;;;;;;;;;;;;;4995845;28;19926;-74
2021/03/04 04:45:18;;;;;;;;;;;;;;;;;;5006760;28;19925;-74
2021/03/04 04:47:44;;;;;;;;;;;;;;;;;;5004282;28;19925;-74
2021/03/04 04:50:10;;;;;;;;;;;;;;;;;;5006008;28;19925;-74
2021/03/04 04:52:36;;;;;;;;;;;;;;;;;;4990179;28;19926;-74
2021/03/04 04:55:02;;;;;;;;;;;;;;;;;;4985445;28;19926;-74
2021/03/04 04:57:28;;;;;;;;;;;;;;;;;;4987362;28;19926;-74
2021/03/04 04:59:54;;;;;;;;;;;;;;;;;;5003462;28;19936;-74
2021/03/04 05:02:20;;;;;;;;;;;;;;;;;;5006672;28;19926;-74
2021/03/04 05:04:46;;;;;;;;;;;;;;;;;;5003400;28;19929;-74
2021/03/04 05:07:12;;;;;;;;;;;;;;;;;;4993990;28;19926;-74
2021/03/04 05:09:38;;;;;;;;;;;;;;;;;;5006538;28;19926;-74
2021/03/04 05:12:04;;;;;;;;;;;;;;;;;;5002120;28;19932;-74
2021/03/04 05:14:30;;;;;;;;;;;;;;;;;;5080266;28;19943;-74
2021/03/04 05:16:56;;;;;;;;;;;;;;;;;;5090225;28;19924;-74
2021/03/04 05:19:22;;;;;;;;;;;;;;;;;;5088107;28;20698;-74
2021/03/04 05:21:48;;;;;;;;;;;;;;;;;;5089864;28;19950;-73
2021/03/04 05:24:14;;;;;;;;;;;;;;;;;;5020152;28;19926;-73
2021/03/04 05:26:40;;;;;;;;;;;;;;;;;;5008111;28;19978;-74
2021/03/04 05:29:06;;;;;;;;;;;;;;;;;;4997921;28;19925;-74
2021/03/04 05:31:32;;;;;;;;;;;;;;;;;;5005911;28;19936;-74
2021/03/04 05:33:58;;;;;;;;;;;;;;;;;;5007675;28;20298;-74
2021/03/04 05:36:23;;;;;;;;;;;;;;;;;;5005559;28;19975;-74
2021/03/04 05:38:49;;;;;;;;;;;;;;;;;;4997942;28;19960;-74
2021/03/04 05:41:15;;;;;;;;;;;;;;;;;;5004710;28;20330;-74
2021/03/04 05:43:41;;;;;;;;;;;;;;;;;;5000334;28;19926;-74
2021/03/04 05:46:07;;;;;;;;;;;;;;;;;;5005974;28;19926;-74
2021/03/04 05:48:34;;;;;;;;;;;;;;;;;;5002063;28;19949;-74
2021/03/04 05:51:00;;;;;;;;;;;;;;;;;;4986414;28;19926;-74
2021/03/04 05:53:26;;;;;;;;;;;;;;;;;;4993539;28;20026;-74
2021/03/04 05:55:52;;;;;;;;;;;;;;;;;;4992166;28;19929;-75
2021/03/04 05:58:18;;;;;;;;;;;;;;;;;;5003702;28;19932;-74
2021/03/04 06:00:44;;;;;;;;;;;;;;;;;;4986954;28;19933;-74
2021/03/04 06:03:10;;;;;;;;;;;;;;;;;;4984226;28;20286;-74
2021/03/04 06:05:36;;;;;;;;;;;;;;;;;;5001006;28;19926;-75
2021/03/04 06:08:02;;;;;;;;;;;;;;;;;;5004493;28;20301;-74
2021/03/04 06:10:28;;;;;;;;;;;;;;;;;;4992289;28;19945;-74
2021/03/04 06:12:54;;;;;;;;;;;;;;;;;;5002643;28;20366;-75
2021/03/04 06:15:20;;;;;;;;;;;;;;;;;;4996248;28;19934;-75
2021/03/04 06:17:46;;;;;;;;;;;;;;;;;;5006410;28;20340;-75
2021/03/04 06:20:12;;;;;;;;;;;;;;;;;;5003386;28;19932;-74
2021/03/04 06:22:38;;;;;;;;;;;;;;;;;;5006000;28;19929;-74
2021/03/04 06:25:04;;;;;;;;;;;;;;;;;;5004521;28;20278;-74
2021/03/04 06:27:30;;;;;;;;;;;;;;;;;;4994206;28;20373;-74
2021/03/04 06:29:56;;;;;;;;;;;;;;;;;;5005216;28;19926;-75
2021/03/04 06:32:23;;;;;;;;;;;;;;;;;;4996199;28;20406;-74
2021/03/04 06:34:49;;;;;;;;;;;;;;;;;;5005869;28;20028;-75
2021/03/04 06:37:15;;;;;;;;;;;;;;;;;;4994585;28;20597;-75
2021/03/04 06:39:42;;;;;;;;;;;;;;;;;;4983096;28;19937;-75
2021/03/04 06:42:08;;;;;;;;;;;;;;;;;;4981712;28;20294;-74
2021/03/04 06:44:34;;;;;;;;;;;;;;;;;;5002755;28;19925;-74
2021/03/04 06:47:00;;;;;;;;;;;;;;;;;;4992953;28;20391;-74
2021/03/04 06:49:26;;;;;;;;;;;;;;;;;;4984251;28;20272;-74
2021/03/04 06:51:52;;;;;;;;;;;;;;;;;;4984661;28;19971;-74
2021/03/04 06:54:18;;;;;;;;;;;;;;;;;;4985722;28;19926;-75
2021/03/04 06:56:44;;;;;;;;;;;;;;;;;;4983061;28;20754;-75
2021/03/04 06:59:10;;;;;;;;;;;;;;;;;;4991732;28;19964;-74
2021/03/04 07:01:36;;;;;;;;;;;;;;;;;;4995326;28;19926;-74
2021/03/04 07:04:02;;;;;;;;;;;;;;;;;;5001970;28;19929;-74
2021/03/04 07:06:28;;;;;;;;;;;;;;;;;;5003395;28;19939;-74
2021/03/04 07:08:54;;;;;;;;;;;;;;;;;;5004256;28;19933;-74
2021/03/04 07:11:20;;;;;;;;;;;;;;;;;;5004948;28;19933;-74
2021/03/04 07:13:46;;;;;;;;;;;;;;;;;;4983328;28;19933;-74
2021/03/04 07:16:12;;;;;;;;;;;;;;;;;;4985808;28;19926;-74
2021/03/04 07:18:38;;;;;;;;;;;;;;;;;;4976726;28;19971;-74
2021/03/04 07:21:04;;;;;;;;;;;;;;;;;;4985232;28;19933;-74
2021/03/04 07:23:30;;;;;;;;;;;;;;;;;;4990745;28;19926;-74
2021/03/04 07:25:56;;;;;;;;;;;;;;;;;;5006053;28;19926;-74
2021/03/04 07:28:23;;;;;;;;;;;;;;;;;;5001218;28;19930;-74
2021/03/04 07:30:49;;;;;;;;;;;;;;;;;;4979422;28;19926;-74
2021/03/04 07:33:15;;;;;;;;;;;;;;;;;;4980946;28;19926;-74
2021/03/04 07:35:41;;;;;;;;;;;;;;;;;;4982486;28;20391;-74
2021/03/04 07:38:07;;;;;;;;;;;;;;;;;;4986063;28;19932;-74
2021/03/04 07:40:33;;;;;;;;;;;;;;;;;;4983614;28;20290;-74
2021/03/04 07:42:59;;;;;;;;;;;;;;;;;;5002284;28;19951;-74
2021/03/04 07:45:25;;;;;;;;;;;;;;;;;;4994148;28;19925;-75
2021/03/04 07:47:51;;;;;;;;;;;;;;;;;;5004876;28;19933;-74
2021/03/04 07:50:16;;;;;;;;;;;;;;;;;;4994401;28;20270;-74
2021/03/04 07:52:42;;;;;;;;;;;;;;;;;;5003741;28;19925;-74
2021/03/04 07:55:08;;;;;;;;;;;;;;;;;;5006526;28;19926;-74
2021/03/04 07:57:34;;;;;;;;;;;;;;;;;;5003180;28;19925;-75
2021/03/04 08:00:02;;;;;;;;;;;;;;;;;;5006102;28;19932;-74
2021/03/04 08:02:28;;;;;;;;;;;;;;;;;;4991958;28;20409;-74
2021/03/04 08:04:54;;;;;;;;;;;;;;;;;;4997118;28;19925;-74
2021/03/04 08:07:20;;;;;;;;;;;;;;;;;;5058564;28;19992;-74
2021/03/04 08:09:46;;;;;;;;;;;;;;;;;;5106651;28;20376;-74
2021/03/04 08:12:12;;;;;;;;;;;;;;;;;;5023103;28;19936;-74
2021/03/04 08:14:38;;;;;;;;;;;;;;;;;;5005897;28;20396;-73
2021/03/04 08:17:04;;;;;;;;;;;;;;;;;;4991785;28;20011;-73
2021/03/04 08:19:30;;;;;;;;;;;;;;;;;;4996873;28;19925;-74
2021/03/04 08:21:56;;;;;;;;;;;;;;;;;;5002103;28;20050;-73
2021/03/04 08:24:22;;;;;;;;;;;;;;;;;;5005149;28;19966;-73
2021/03/04 08:26:48;;;;;;;;;;;;;;;;;;5003466;28;19926;-73
2021/03/04 08:29:14;;;;;;;;;;;;;;;;;;5002617;28;19926;-73
2021/03/04 08:31:40;;;;;;;;;;;;;;;;;;5002642;28;19975;-73
2021/03/04 08:34:06;;;;;;;;;;;;;;;;;;4987528;28;19934;-73
2021/03/04 08:36:32;;;;;;;;;;;;;;;;;;5002470;28;19929;-74
2021/03/04 08:38:58;;;;;;;;;;;;;;;;;;5001633;28;19926;-74
2021/03/04 08:41:24;;;;;;;;;;;;;;;;;;5001903;28;19938;-74
2021/03/04 08:43:51;;;;;;;;;;;;;;;;;;4984095;28;19926;-73
2021/03/04 08:46:18;;;;;;;;;;;;;;;;;;4988610;28;20021;-74
2021/03/04 08:48:44;;;;;;;;;;;;;;;;;;4990767;28;19926;-74
2021/03/04 08:51:10;;;;;;;;;;;;;;;;;;4996326;28;20366;-74
2021/03/04 08:53:36;;;;;;;;;;;;;;;;;;4999188;28;19926;-74
2021/03/04 08:56:02;;;;;;;;;;;;;;;;;;5008885;28;20415;-74
2021/03/04 08:58:28;;;;;;;;;;;;;;;;;;5011339;28;19926;-73
2021/03/04 09:00:54;;;;;;;;;;;;;;;;;;5013661;28;19933;-73
2021/03/04 09:03:20;;;;;;;;;;;;;;;;;;5000880;28;20118;-73
2021/03/04 09:05:46;;;;;;;;;;;;;;;;;;5004946;28;19932;-73
2021/03/04 09:08:12;;;;;;;;;;;;;;;;;;5003641;28;19930;-74
2021/03/04 09:10:38;;;;;;;;;;;;;;;;;;5009061;28;19926;-74
2021/03/04 09:13:04;;;;;;;;;;;;;;;;;;5002162;28;20007;-74
2021/03/04 09:15:31;;;;;;;;;;;;;;;;;;5009663;28;19925;-73
2021/03/04 09:17:57;;;;;;;;;;;;;;;;;;5006309;28;19933;-75
2021/03/04 09:20:23;;;;;;;;;;;;;;;;;;5000247;28;19925;-75
2021/03/04 09:22:49;;;;;;;;;;;;;;;;;;4999535;28;20302;-75
2021/03/04 09:25:15;;;;;;;;;;;;;;;;;;5008044;28;19935;-75
2021/03/04 09:27:41;;;;;;;;;;;;;;;;;;5007503;28;19937;-74
2021/03/04 09:30:07;;;;;;;;;;;;;;;;;;5000679;28;20001;-75
2021/03/04 09:32:32;;;;;;;;;;;;;;;;;;5009850;28;20270;-75
2021/03/04 09:34:58;;;;;;;;;;;;;;;;;;4995788;28;19933;-76
2021/03/04 09:37:24;;;;;;;;;;;;;;;;;;5003689;28;20302;-76
2021/03/04 09:39:50;;;;;;;;;;;;;;;;;;5004176;28;19933;-77
2021/03/04 09:42:16;;;;;;;;;;;;;;;;;;5000234;28;19949;-77
2021/03/04 09:44:42;;;;;;;;;;;;;;;;;;5001504;28;19929;-76
2021/03/04 09:47:08;;;;;;;;;;;;;;;;;;4998239;28;19937;-76
2021/03/04 09:49:34;;;;;;;;;;;;;;;;;;5006160;28;19929;-76
2021/03/04 09:52:01;;;;;;;;;;;;;;;;;;4993493;28;20664;-75
2021/03/04 09:54:27;;;;;;;;;;;;;;;;;;4990503;28;19926;-76
2021/03/04 09:56:53;;;;;;;;;;;;;;;;;;5003098;28;19926;-74
2021/03/04 09:59:19;;;;;;;;;;;;;;;;;;4995967;28;19926;-76
2021/03/04 10:01:45;;;;;;;;;;;;;;;;;;4984289;28;19925;-75
2021/03/04 10:04:11;;;;;;;;;;;;;;;;;;5005164;28;19929;-75
2021/03/04 10:06:37;;;;;;;;;;;;;;;;;;4999767;28;19975;-76
2021/03/04 10:09:03;;;;;;;;;;;;;;;;;;4988016;28;19937;-75
2021/03/04 10:11:31;;;;;;;;;;;;;;;;;;4986909;28;20061;-76
2021/03/04 10:13:57;;;;;;;;;;;;;;;;;;4984207;28;20025;-75
2021/03/04 10:16:23;;;;;;;;;;;;;;;;;;4986231;28;19925;-74
2021/03/04 10:18:49;;;;;;;;;;;;;;;;;;5004445;28;19930;-75
2021/03/04 10:21:15;;;;;;;;;;;;;;;;;;4995233;28;19933;-75
2021/03/04 10:23:41;;;;;;;;;;;;;;;;;;4999942;28;19937;-75
2021/03/04 10:26:07;;;;;;;;;;;;;;;;;;4984032;28;20365;-75
2021/03/04 10:28:32;;;;;;;;;;;;;;;;;;4987802;28;19925;-75
2021/03/04 10:30:58;;;;;;;;;;;;;;;;;;4983275;28;19988;-74
2021/03/04 10:33:24;;;;;;;;;;;;;;;;;;4981337;28;19933;-75
2021/03/04 10:35:50;;;;;;;;;;;;;;;;;;4984792;28;20290;-75
2021/03/04 10:38:16;;;;;;;;;;;;;;;;;;4980161;28;19934;-74
2021/03/04 10:40:42;;;;;;;;;;;;;;;;;;4989316;28;19937;-73
2021/03/04 10:43:08;;;;;;;;;;;;;;;;;;5003534;28;19926;-74
2021/03/04 10:45:34;;;;;;;;;;;;;;;;;;5005736;28;19995;-74
2021/03/04 10:48:00;;;;;;;;;;;;;;;;;;4994496;28;20618;-74
2021/03/04 10:50:26;;;;;;;;;;;;;;;;;;5005618;28;20290;-74
2021/03/04 10:52:52;;;;;;;;;;;;;;;;;;4992350;28;19929;-74
2021/03/04 10:55:17;;;;;;;;;;;;;;;;;;5004806;28;19932;-74
2021/03/04 10:57:43;;;;;;;;;;;;;;;;;;4998229;28;19929;-75
2021/03/04 11:00:09;;;;;;;;;;;;;;;;;;5003565;28;19925;-74
2021/03/04 11:02:35;;;;;;;;;;;;;;;;;;4994469;28;20367;-74
2021/03/04 11:05:01;;;;;;;;;;;;;;;;;;5034308;28;19925;-73
2021/03/04 11:07:27;;;;;;;;;;;;;;;;;;5000768;28;19925;-74
2021/03/04 11:09:53;;;;;;;;;;;;;;;;;;5009638;28;19930;-74
2021/03/04 11:12:19;;;;;;;;;;;;;;;;;;5001857;28;19933;-73
2021/03/04 11:14:45;;;;;;;;;;;;;;;;;;5017425;28;19923;-73
2021/03/04 11:17:11;;;;;;;;;;;;;;;;;;5035754;28;20352;-74
2021/03/04 11:19:37;;;;;;;;;;;;;;;;;;4988192;28;19947;-73
2021/03/04 11:22:03;;;;;;;;;;;;;;;;;;4998547;28;20390;-73
2021/03/04 11:24:29;;;;;;;;;;;;;;;;;;4987639;28;19989;-75
2021/03/04 11:26:55;;;;;;;;;;;;;;;;;;4998323;28;20328;-72
2021/03/04 11:29:21;;;;;;;;;;;;;;;;;;4998368;28;19926;-75
2021/03/04 11:31:46;;;;;;;;;;;;;;;;;;5008195;28;20397;-73
2021/03/04 11:34:12;;;;;;;;;;;;;;;;;;5019078;28;19927;-76
2021/03/04 11:36:38;;;;;;;;;;;;;;;;;;4990976;28;20281;-73
2021/03/04 11:39:04;;;;;;;;;;;;;;;;;;4992863;28;20344;-73
2021/03/04 11:41:30;;;;;;;;;;;;;;;;;;4985941;28;20072;-74
